メインページ
METAR-TAF:

METAR-TAF

空港 :

ヤクーツク, ロシア

ヤクーツク空港

緯度: 62-01N, 経度: 129-43E, 海抜: 103m

現時点の気象観測

当レポートは30分前の20:30(UTC)に作成
無風
気温 -17°C
湿度 92%
気圧 1021 hPa
視程10km以上
1,500メートル以下は雲なし、積乱雲なし

METAR: UEEE 292030Z 00000MPS CAVOK M17/M18 Q1021 R23L/09//55 NOSIG RMK QFE757

時間: 06:00 (21:00 UTC)

予報

当レポートは1時間0分前の20:00(UTC)に作成
予報は29日の 21時(UTC)から 31日の 03時(UTC)まで有効
変向風 2kt
視程10km以上
1,500メートル以下は雲なし、積乱雲なし
29日の 21時(UTC)から 30日の 01時(UTC)まで一時的に
視程: 0300m
高度300ftの千切れ雲あり
着氷性の霧

TAF: UEEE 292000Z 2921/3103 VRB01MPS CAVOK TEMPO 2921/3001 0300 FZFG BKN003

4,000以上の空港の気象観測と天気予報(METAR報とTAF報)

利用可能な観測所は地図上に黄色い丸と赤い丸で示す。

丸の上にカーソルを重ねると観測所名を参照できる。

次にクリックすると気象観測と天気予報を参照できる。

マップの切り替え:黒色「×」印の緑ボタンをクリックして拡大、「-」印の緑ボタンをクリックして縮小、緑色の三角印をクリックして隣りの地図に切り替え


METAR-TAF: